sensor_id;sensor_type;location;lat;lon;timestamp;P1;durP1;ratioP1;P2;durP2;ratioP2
8036;SDS011;4061;51.360;7.340;2023-06-24T00:01:35;7.57;;;3.63;;
8036;SDS011;4061;51.360;7.340;2023-06-24T00:04:03;5.25;;;3.30;;
8036;SDS011;4061;51.360;7.340;2023-06-24T00:06:30;3.50;;;3.20;;
8036;SDS011;4061;51.360;7.340;2023-06-24T00:08:57;5.47;;;2.80;;
8036;SDS011;4061;51.360;7.340;2023-06-24T00:11:28;8.52;;;3.78;;
8036;SDS011;4061;51.360;7.340;2023-06-24T00:13:55;6.10;;;3.45;;
8036;SDS011;4061;51.360;7.340;2023-06-24T00:16:22;5.25;;;3.17;;
8036;SDS011;4061;51.360;7.340;2023-06-24T00:18:52;5.35;;;3.22;;
8036;SDS011;4061;51.360;7.340;2023-06-24T00:21:20;5.97;;;3.63;;
8036;SDS011;4061;51.360;7.340;2023-06-24T00:23:47;4.07;;;3.33;;
8036;SDS011;4061;51.360;7.340;2023-06-24T00:26:14;5.53;;;3.70;;
8036;SDS011;4061;51.360;7.340;2023-06-24T00:28:43;5.03;;;3.20;;
8036;SDS011;4061;51.360;7.340;2023-06-24T00:31:10;4.07;;;3.47;;
8036;SDS011;4061;51.360;7.340;2023-06-24T00:33:37;4.78;;;3.35;;
8036;SDS011;4061;51.360;7.340;2023-06-24T00:36:04;4.85;;;3.92;;
8036;SDS011;4061;51.360;7.340;2023-06-24T00:38:33;6.63;;;3.92;;
8036;SDS011;4061;51.360;7.340;2023-06-24T00:41:00;7.22;;;4.35;;
8036;SDS011;4061;51.360;7.340;2023-06-24T00:43:27;5.20;;;3.95;;
8036;SDS011;4061;51.360;7.340;2023-06-24T00:45:57;8.80;;;4.15;;
8036;SDS011;4061;51.360;7.340;2023-06-24T00:48:23;8.10;;;3.92;;
8036;SDS011;4061;51.360;7.340;2023-06-24T00:50:50;5.70;;;3.30;;
8036;SDS011;4061;51.360;7.340;2023-06-24T00:53:17;4.82;;;4.20;;
8036;SDS011;4061;51.360;7.340;2023-06-24T00:55:49;5.72;;;4.47;;
8036;SDS011;4061;51.360;7.340;2023-06-24T00:58:17;6.13;;;4.10;;
8036;SDS011;4061;51.360;7.340;2023-06-24T01:00:45;5.53;;;4.20;;
8036;SDS011;4061;51.360;7.340;2023-06-24T01:03:23;9.52;;;4.15;;
8036;SDS011;4061;51.360;7.340;2023-06-24T01:05:50;7.50;;;3.95;;
8036;SDS011;4061;51.360;7.340;2023-06-24T01:08:18;6.65;;;4.40;;
8036;SDS011;4061;51.360;7.340;2023-06-24T01:10:47;9.27;;;4.53;;
8036;SDS011;4061;51.360;7.340;2023-06-24T01:13:15;5.93;;;3.85;;
8036;SDS011;4061;51.360;7.340;2023-06-24T01:15:42;8.02;;;4.50;;
8036;SDS011;4061;51.360;7.340;2023-06-24T01:18:10;6.95;;;4.07;;
8036;SDS011;4061;51.360;7.340;2023-06-24T01:20:42;4.50;;;4.07;;
8036;SDS011;4061;51.360;7.340;2023-06-24T01:26:21;8.25;;;4.57;;
8036;SDS011;4061;51.360;7.340;2023-06-24T01:29:24;6.65;;;3.97;;
8036;SDS011;4061;51.360;7.340;2023-06-24T01:31:58;10.32;;;4.38;;
8036;SDS011;4061;51.360;7.340;2023-06-24T01:34:28;6.28;;;4.53;;
8036;SDS011;4061;51.360;7.340;2023-06-24T01:37:08;9.65;;;4.60;;
8036;SDS011;4061;51.360;7.340;2023-06-24T01:39:41;4.78;;;4.30;;
8036;SDS011;4061;51.360;7.340;2023-06-24T01:42:10;7.78;;;4.63;;
8036;SDS011;4061;51.360;7.340;2023-06-24T01:44:40;5.72;;;3.95;;
8036;SDS011;4061;51.360;7.340;2023-06-24T01:47:10;8.70;;;4.00;;
8036;SDS011;4061;51.360;7.340;2023-06-24T01:49:38;5.80;;;4.00;;
8036;SDS011;4061;51.360;7.340;2023-06-24T01:52:07;9.75;;;4.00;;
8036;SDS011;4061;51.360;7.340;2023-06-24T01:54:35;5.18;;;3.80;;
8036;SDS011;4061;51.360;7.340;2023-06-24T01:57:03;6.28;;;4.95;;
8036;SDS011;4061;51.360;7.340;2023-06-24T01:59:34;9.05;;;4.57;;
8036;SDS011;4061;51.360;7.340;2023-06-24T02:02:03;4.78;;;3.67;;
8036;SDS011;4061;51.360;7.340;2023-06-24T02:04:32;6.22;;;4.05;;
8036;SDS011;4061;51.360;7.340;2023-06-24T02:07:01;6.38;;;3.95;;
8036;SDS011;4061;51.360;7.340;2023-06-24T02:09:29;5.50;;;4.65;;
8036;SDS011;4061;51.360;7.340;2023-06-24T02:11:57;8.35;;;4.45;;
8036;SDS011;4061;51.360;7.340;2023-06-24T02:14:25;6.40;;;4.45;;
8036;SDS011;4061;51.360;7.340;2023-06-24T02:16:53;8.90;;;4.78;;
8036;SDS011;4061;51.360;7.340;2023-06-24T02:19:21;5.07;;;4.55;;
8036;SDS011;4061;51.360;7.340;2023-06-24T02:21:50;5.57;;;4.15;;
8036;SDS011;4061;51.360;7.340;2023-06-24T02:24:18;8.52;;;4.47;;
8036;SDS011;4061;51.360;7.340;2023-06-24T02:26:45;10.07;;;4.30;;
8036;SDS011;4061;51.360;7.340;2023-06-24T02:29:13;6.45;;;3.90;;
8036;SDS011;4061;51.360;7.340;2023-06-24T02:31:40;6.60;;;4.45;;
8036;SDS011;4061;51.360;7.340;2023-06-24T02:34:07;7.60;;;4.82;;
8036;SDS011;4061;51.360;7.340;2023-06-24T02:36:34;8.00;;;4.45;;
8036;SDS011;4061;51.360;7.340;2023-06-24T02:39:02;11.90;;;4.53;;
8036;SDS011;4061;51.360;7.340;2023-06-24T02:41:29;10.68;;;4.65;;
8036;SDS011;4061;51.360;7.340;2023-06-24T02:43:56;11.40;;;4.85;;
8036;SDS011;4061;51.360;7.340;2023-06-24T02:46:23;10.90;;;5.15;;
8036;SDS011;4061;51.360;7.340;2023-06-24T02:48:54;6.97;;;4.03;;
8036;SDS011;4061;51.360;7.340;2023-06-24T02:51:21;5.22;;;4.25;;
8036;SDS011;4061;51.360;7.340;2023-06-24T02:53:48;8.38;;;4.00;;
8036;SDS011;4061;51.360;7.340;2023-06-24T02:56:17;7.93;;;4.65;;
8036;SDS011;4061;51.360;7.340;2023-06-24T02:58:47;4.88;;;3.70;;
8036;SDS011;4061;51.360;7.340;2023-06-24T03:01:15;8.63;;;4.57;;
8036;SDS011;4061;51.360;7.340;2023-06-24T03:03:42;7.13;;;4.82;;
8036;SDS011;4061;51.360;7.340;2023-06-24T03:06:14;6.43;;;4.65;;
8036;SDS011;4061;51.360;7.340;2023-06-24T03:08:42;7.63;;;4.25;;
8036;SDS011;4061;51.360;7.340;2023-06-24T03:11:11;8.65;;;4.65;;
8036;SDS011;4061;51.360;7.340;2023-06-24T03:13:40;7.60;;;4.68;;
8036;SDS011;4061;51.360;7.340;2023-06-24T03:16:07;4.45;;;3.70;;
8036;SDS011;4061;51.360;7.340;2023-06-24T03:18:37;6.03;;;4.20;;
8036;SDS011;4061;51.360;7.340;2023-06-24T03:21:04;6.55;;;4.30;;
8036;SDS011;4061;51.360;7.340;2023-06-24T03:23:31;7.43;;;4.18;;
8036;SDS011;4061;51.360;7.340;2023-06-24T03:25:58;4.78;;;3.60;;
8036;SDS011;4061;51.360;7.340;2023-06-24T03:28:25;5.35;;;3.78;;
8036;SDS011;4061;51.360;7.340;2023-06-24T03:30:53;11.63;;;4.28;;
8036;SDS011;4061;51.360;7.340;2023-06-24T03:33:20;6.25;;;4.13;;
8036;SDS011;4061;51.360;7.340;2023-06-24T03:35:49;6.20;;;4.03;;
8036;SDS011;4061;51.360;7.340;2023-06-24T03:38:16;6.47;;;3.95;;
8036;SDS011;4061;51.360;7.340;2023-06-24T03:40:43;8.27;;;4.18;;
8036;SDS011;4061;51.360;7.340;2023-06-24T03:43:09;4.90;;;3.78;;
8036;SDS011;4061;51.360;7.340;2023-06-24T03:45:36;4.07;;;3.72;;
8036;SDS011;4061;51.360;7.340;2023-06-24T03:48:05;5.40;;;4.60;;
8036;SDS011;4061;51.360;7.340;2023-06-24T03:50:32;5.20;;;4.40;;
8036;SDS011;4061;51.360;7.340;2023-06-24T03:52:59;4.95;;;4.25;;
8036;SDS011;4061;51.360;7.340;2023-06-24T03:55:26;6.35;;;3.70;;
8036;SDS011;4061;51.360;7.340;2023-06-24T03:57:53;8.38;;;4.07;;
8036;SDS011;4061;51.360;7.340;2023-06-24T04:00:20;4.28;;;3.78;;
8036;SDS011;4061;51.360;7.340;2023-06-24T04:02:48;5.45;;;3.72;;
8036;SDS011;4061;51.360;7.340;2023-06-24T04:05:16;4.95;;;3.92;;
8036;SDS011;4061;51.360;7.340;2023-06-24T04:07:43;3.42;;;3.10;;
8036;SDS011;4061;51.360;7.340;2023-06-24T04:10:12;3.95;;;3.45;;
8036;SDS011;4061;51.360;7.340;2023-06-24T04:12:39;7.18;;;4.07;;
8036;SDS011;4061;51.360;7.340;2023-06-24T04:15:06;7.78;;;3.75;;
8036;SDS011;4061;51.360;7.340;2023-06-24T04:17:34;4.10;;;3.70;;
8036;SDS011;4061;51.360;7.340;2023-06-24T04:20:00;4.25;;;3.35;;
8036;SDS011;4061;51.360;7.340;2023-06-24T04:22:30;3.65;;;3.35;;
8036;SDS011;4061;51.360;7.340;2023-06-24T04:24:57;5.25;;;3.20;;
8036;SDS011;4061;51.360;7.340;2023-06-24T04:27:24;9.02;;;2.97;;
8036;SDS011;4061;51.360;7.340;2023-06-24T04:29:50;5.25;;;3.42;;
8036;SDS011;4061;51.360;7.340;2023-06-24T04:32:17;3.95;;;3.08;;
8036;SDS011;4061;51.360;7.340;2023-06-24T04:34:44;4.07;;;3.67;;
8036;SDS011;4061;51.360;7.340;2023-06-24T04:37:11;5.35;;;3.40;;
8036;SDS011;4061;51.360;7.340;2023-06-24T04:39:39;3.55;;;2.95;;
8036;SDS011;4061;51.360;7.340;2023-06-24T04:42:06;4.30;;;2.72;;
8036;SDS011;4061;51.360;7.340;2023-06-24T04:44:33;3.60;;;3.08;;
8036;SDS011;4061;51.360;7.340;2023-06-24T04:46:59;7.88;;;3.40;;
8036;SDS011;4061;51.360;7.340;2023-06-24T04:49:27;4.88;;;3.40;;
8036;SDS011;4061;51.360;7.340;2023-06-24T04:51:54;3.15;;;2.85;;
8036;SDS011;4061;51.360;7.340;2023-06-24T04:54:21;7.05;;;3.08;;
8036;SDS011;4061;51.360;7.340;2023-06-24T04:56:49;4.25;;;3.78;;
8036;SDS011;4061;51.360;7.340;2023-06-24T04:59:17;3.28;;;2.78;;
8036;SDS011;4061;51.360;7.340;2023-06-24T05:01:44;4.70;;;2.97;;
8036;SDS011;4061;51.360;7.340;2023-06-24T05:04:11;4.97;;;3.28;;
8036;SDS011;4061;51.360;7.340;2023-06-24T05:06:37;5.85;;;2.97;;
8036;SDS011;4061;51.360;7.340;2023-06-24T05:09:04;3.67;;;3.00;;
8036;SDS011;4061;51.360;7.340;2023-06-24T05:11:31;7.88;;;3.20;;
8036;SDS011;4061;51.360;7.340;2023-06-24T05:13:59;5.65;;;2.38;;
8036;SDS011;4061;51.360;7.340;2023-06-24T05:16:26;5.93;;;2.90;;
8036;SDS011;4061;51.360;7.340;2023-06-24T05:18:53;4.32;;;2.97;;
8036;SDS011;4061;51.360;7.340;2023-06-24T05:21:20;6.05;;;3.20;;
8036;SDS011;4061;51.360;7.340;2023-06-24T05:23:47;5.93;;;3.15;;
8036;SDS011;4061;51.360;7.340;2023-06-24T05:26:14;4.53;;;3.35;;
8036;SDS011;4061;51.360;7.340;2023-06-24T05:28:41;9.90;;;2.83;;
8036;SDS011;4061;51.360;7.340;2023-06-24T05:31:09;5.57;;;2.72;;
8036;SDS011;4061;51.360;7.340;2023-06-24T05:33:36;7.00;;;2.42;;
8036;SDS011;4061;51.360;7.340;2023-06-24T05:36:04;3.13;;;2.92;;
8036;SDS011;4061;51.360;7.340;2023-06-24T05:38:31;3.58;;;2.88;;
8036;SDS011;4061;51.360;7.340;2023-06-24T05:40:58;6.28;;;2.60;;
8036;SDS011;4061;51.360;7.340;2023-06-24T05:43:27;5.28;;;3.00;;
8036;SDS011;4061;51.360;7.340;2023-06-24T05:45:54;4.28;;;2.53;;
8036;SDS011;4061;51.360;7.340;2023-06-24T05:48:22;5.18;;;2.97;;
8036;SDS011;4061;51.360;7.340;2023-06-24T05:50:49;3.20;;;2.83;;
8036;SDS011;4061;51.360;7.340;2023-06-24T05:53:16;4.65;;;2.53;;
8036;SDS011;4061;51.360;7.340;2023-06-24T05:55:42;4.93;;;2.90;;
8036;SDS011;4061;51.360;7.340;2023-06-24T05:58:09;2.42;;;1.92;;
8036;SDS011;4061;51.360;7.340;2023-06-24T06:00:36;2.45;;;2.28;;
8036;SDS011;4061;51.360;7.340;2023-06-24T06:03:03;4.88;;;2.10;;
8036;SDS011;4061;51.360;7.340;2023-06-24T06:05:32;5.28;;;2.55;;
8036;SDS011;4061;51.360;7.340;2023-06-24T06:07:58;4.40;;;2.47;;
8036;SDS011;4061;51.360;7.340;2023-06-24T06:10:25;2.40;;;2.20;;
8036;SDS011;4061;51.360;7.340;2023-06-24T06:12:52;3.92;;;2.50;;
8036;SDS011;4061;51.360;7.340;2023-06-24T06:15:19;4.88;;;3.15;;
8036;SDS011;4061;51.360;7.340;2023-06-24T06:17:47;2.45;;;2.13;;
8036;SDS011;4061;51.360;7.340;2023-06-24T06:20:14;3.03;;;2.65;;
8036;SDS011;4061;51.360;7.340;2023-06-24T06:22:42;3.85;;;2.78;;
8036;SDS011;4061;51.360;7.340;2023-06-24T06:25:09;3.33;;;2.92;;
8036;SDS011;4061;51.360;7.340;2023-06-24T06:27:35;3.85;;;3.17;;
8036;SDS011;4061;51.360;7.340;2023-06-24T06:30:03;2.92;;;2.70;;
8036;SDS011;4061;51.360;7.340;2023-06-24T06:32:31;2.90;;;2.28;;
8036;SDS011;4061;51.360;7.340;2023-06-24T06:34:57;3.40;;;2.92;;
8036;SDS011;4061;51.360;7.340;2023-06-24T06:37:24;6.70;;;2.70;;
8036;SDS011;4061;51.360;7.340;2023-06-24T06:39:52;6.57;;;3.50;;
8036;SDS011;4061;51.360;7.340;2023-06-24T06:42:19;4.28;;;2.85;;
8036;SDS011;4061;51.360;7.340;2023-06-24T06:44:46;3.17;;;2.85;;
8036;SDS011;4061;51.360;7.340;2023-06-24T06:47:13;4.60;;;3.08;;
8036;SDS011;4061;51.360;7.340;2023-06-24T06:49:40;4.93;;;3.17;;
8036;SDS011;4061;51.360;7.340;2023-06-24T06:52:07;5.40;;;3.10;;
8036;SDS011;4061;51.360;7.340;2023-06-24T06:54:35;4.63;;;3.65;;
8036;SDS011;4061;51.360;7.340;2023-06-24T06:57:03;7.50;;;3.40;;
8036;SDS011;4061;51.360;7.340;2023-06-24T06:59:31;5.68;;;3.95;;
8036;SDS011;4061;51.360;7.340;2023-06-24T07:01:58;4.55;;;3.55;;
8036;SDS011;4061;51.360;7.340;2023-06-24T07:04:25;4.22;;;3.13;;
8036;SDS011;4061;51.360;7.340;2023-06-24T07:06:52;4.90;;;3.83;;
8036;SDS011;4061;51.360;7.340;2023-06-24T07:09:19;5.15;;;4.07;;
8036;SDS011;4061;51.360;7.340;2023-06-24T07:11:46;5.38;;;3.58;;
8036;SDS011;4061;51.360;7.340;2023-06-24T07:14:14;4.38;;;3.97;;
8036;SDS011;4061;51.360;7.340;2023-06-24T07:16:41;9.70;;;3.67;;
8036;SDS011;4061;51.360;7.340;2023-06-24T07:19:08;5.50;;;4.47;;
8036;SDS011;4061;51.360;7.340;2023-06-24T07:21:35;7.35;;;3.78;;
8036;SDS011;4061;51.360;7.340;2023-06-24T07:24:02;5.07;;;4.57;;
8036;SDS011;4061;51.360;7.340;2023-06-24T07:26:29;8.82;;;4.15;;
8036;SDS011;4061;51.360;7.340;2023-06-24T07:28:56;5.22;;;3.92;;
8036;SDS011;4061;51.360;7.340;2023-06-24T07:31:25;5.32;;;4.13;;
8036;SDS011;4061;51.360;7.340;2023-06-24T07:33:52;6.97;;;3.80;;
8036;SDS011;4061;51.360;7.340;2023-06-24T07:36:19;5.95;;;3.83;;
8036;SDS011;4061;51.360;7.340;2023-06-24T07:38:46;6.65;;;4.68;;
8036;SDS011;4061;51.360;7.340;2023-06-24T07:41:13;4.57;;;3.78;;
8036;SDS011;4061;51.360;7.340;2023-06-24T07:43:40;7.32;;;4.18;;
8036;SDS011;4061;51.360;7.340;2023-06-24T07:46:07;6.25;;;4.03;;
8036;SDS011;4061;51.360;7.340;2023-06-24T07:48:35;6.97;;;4.07;;
8036;SDS011;4061;51.360;7.340;2023-06-24T07:51:02;4.53;;;3.75;;
8036;SDS011;4061;51.360;7.340;2023-06-24T07:53:29;5.22;;;4.30;;
8036;SDS011;4061;51.360;7.340;2023-06-24T07:55:58;5.15;;;4.10;;
8036;SDS011;4061;51.360;7.340;2023-06-24T07:58:25;4.93;;;4.40;;
8036;SDS011;4061;51.360;7.340;2023-06-24T08:00:52;5.13;;;3.80;;
8036;SDS011;4061;51.360;7.340;2023-06-24T08:03:19;11.57;;;3.90;;
8036;SDS011;4061;51.360;7.340;2023-06-24T08:05:48;7.50;;;4.20;;
8036;SDS011;4061;51.360;7.340;2023-06-24T08:08:15;5.88;;;3.97;;
8036;SDS011;4061;51.360;7.340;2023-06-24T08:10:44;9.02;;;3.20;;
8036;SDS011;4061;51.360;7.340;2023-06-24T08:13:11;5.10;;;3.67;;
8036;SDS011;4061;51.360;7.340;2023-06-24T08:15:38;6.63;;;4.10;;
8036;SDS011;4061;51.360;7.340;2023-06-24T08:18:05;4.82;;;3.58;;
8036;SDS011;4061;51.360;7.340;2023-06-24T08:20:32;5.28;;;4.03;;
8036;SDS011;4061;51.360;7.340;2023-06-24T08:23:01;7.28;;;4.72;;
8036;SDS011;4061;51.360;7.340;2023-06-24T08:25:27;9.40;;;4.30;;
8036;SDS011;4061;51.360;7.340;2023-06-24T08:27:55;4.95;;;3.60;;
8036;SDS011;4061;51.360;7.340;2023-06-24T08:30:22;7.00;;;4.72;;
8036;SDS011;4061;51.360;7.340;2023-06-24T08:32:49;9.95;;;5.30;;
8036;SDS011;4061;51.360;7.340;2023-06-24T08:35:16;6.40;;;4.57;;
8036;SDS011;4061;51.360;7.340;2023-06-24T08:37:43;7.55;;;4.50;;
8036;SDS011;4061;51.360;7.340;2023-06-24T08:40:12;7.57;;;4.40;;
8036;SDS011;4061;51.360;7.340;2023-06-24T08:42:39;7.43;;;4.60;;
8036;SDS011;4061;51.360;7.340;2023-06-24T08:45:06;9.38;;;4.72;;
8036;SDS011;4061;51.360;7.340;2023-06-24T08:47:33;7.95;;;5.00;;
8036;SDS011;4061;51.360;7.340;2023-06-24T08:50:03;9.43;;;4.50;;
8036;SDS011;4061;51.360;7.340;2023-06-24T08:52:31;15.60;;;4.75;;
8036;SDS011;4061;51.360;7.340;2023-06-24T08:55:00;8.38;;;5.38;;
8036;SDS011;4061;51.360;7.340;2023-06-24T08:57:29;8.93;;;5.25;;
8036;SDS011;4061;51.360;7.340;2023-06-24T08:59:56;14.18;;;5.18;;
8036;SDS011;4061;51.360;7.340;2023-06-24T09:02:23;8.30;;;5.80;;
8036;SDS011;4061;51.360;7.340;2023-06-24T09:04:50;16.27;;;7.22;;
8036;SDS011;4061;51.360;7.340;2023-06-24T09:07:24;8.75;;;5.65;;
8036;SDS011;4061;51.360;7.340;2023-06-24T09:09:53;11.75;;;5.90;;
8036;SDS011;4061;51.360;7.340;2023-06-24T09:12:19;10.05;;;5.47;;
8036;SDS011;4061;51.360;7.340;2023-06-24T09:14:49;9.30;;;5.15;;
8036;SDS011;4061;51.360;7.340;2023-06-24T09:17:16;7.70;;;5.13;;
8036;SDS011;4061;51.360;7.340;2023-06-24T09:19:44;13.43;;;6.30;;
8036;SDS011;4061;51.360;7.340;2023-06-24T09:22:11;13.75;;;5.72;;
8036;SDS011;4061;51.360;7.340;2023-06-24T09:24:42;14.20;;;6.20;;
8036;SDS011;4061;51.360;7.340;2023-06-24T09:27:12;14.05;;;5.97;;
8036;SDS011;4061;51.360;7.340;2023-06-24T09:29:39;6.28;;;4.68;;
8036;SDS011;4061;51.360;7.340;2023-06-24T09:32:08;7.40;;;4.53;;
8036;SDS011;4061;51.360;7.340;2023-06-24T09:34:36;5.93;;;4.50;;
8036;SDS011;4061;51.360;7.340;2023-06-24T09:37:03;11.73;;;4.10;;
8036;SDS011;4061;51.360;7.340;2023-06-24T09:39:35;6.93;;;4.45;;
8036;SDS011;4061;51.360;7.340;2023-06-24T09:42:03;5.35;;;4.30;;
8036;SDS011;4061;51.360;7.340;2023-06-24T09:44:30;6.93;;;4.78;;
8036;SDS011;4061;51.360;7.340;2023-06-24T09:46:57;6.85;;;4.85;;
8036;SDS011;4061;51.360;7.340;2023-06-24T09:49:26;8.68;;;4.97;;
8036;SDS011;4061;51.360;7.340;2023-06-24T09:51:54;7.68;;;4.65;;
8036;SDS011;4061;51.360;7.340;2023-06-24T09:54:22;9.40;;;4.63;;
8036;SDS011;4061;51.360;7.340;2023-06-24T09:56:52;11.48;;;4.75;;
8036;SDS011;4061;51.360;7.340;2023-06-24T09:59:20;9.85;;;5.57;;
8036;SDS011;4061;51.360;7.340;2023-06-24T10:01:47;12.73;;;4.93;;
8036;SDS011;4061;51.360;7.340;2023-06-24T10:04:16;9.82;;;3.70;;
8036;SDS011;4061;51.360;7.340;2023-06-24T10:06:45;4.45;;;3.42;;
8036;SDS011;4061;51.360;7.340;2023-06-24T10:09:12;5.20;;;3.92;;
8036;SDS011;4061;51.360;7.340;2023-06-24T10:11:42;8.30;;;3.90;;
8036;SDS011;4061;51.360;7.340;2023-06-24T10:14:09;10.85;;;3.53;;
8036;SDS011;4061;51.360;7.340;2023-06-24T10:16:36;5.72;;;4.20;;
8036;SDS011;4061;51.360;7.340;2023-06-24T10:19:03;6.18;;;3.95;;
8036;SDS011;4061;51.360;7.340;2023-06-24T10:21:47;6.47;;;4.22;;
8036;SDS011;4061;51.360;7.340;2023-06-24T10:24:27;6.72;;;4.18;;
8036;SDS011;4061;51.360;7.340;2023-06-24T10:26:55;5.72;;;3.55;;
8036;SDS011;4061;51.360;7.340;2023-06-24T10:29:30;8.45;;;3.53;;
8036;SDS011;4061;51.360;7.340;2023-06-24T10:32:01;7.18;;;3.60;;
8036;SDS011;4061;51.360;7.340;2023-06-24T10:34:34;3.88;;;3.05;;
8036;SDS011;4061;51.360;7.340;2023-06-24T10:37:10;3.85;;;3.05;;
8036;SDS011;4061;51.360;7.340;2023-06-24T10:39:47;4.60;;;2.80;;
8036;SDS011;4061;51.360;7.340;2023-06-24T10:45:15;6.13;;;3.58;;
8036;SDS011;4061;51.360;7.340;2023-06-24T10:47:43;5.97;;;3.90;;
8036;SDS011;4061;51.360;7.340;2023-06-24T10:50:10;4.80;;;3.97;;
8036;SDS011;4061;51.360;7.340;2023-06-24T10:52:40;10.90;;;3.72;;
8036;SDS011;4061;51.360;7.340;2023-06-24T10:55:07;4.53;;;3.38;;
8036;SDS011;4061;51.360;7.340;2023-06-24T10:57:34;6.28;;;3.90;;
8036;SDS011;4061;51.360;7.340;2023-06-24T11:00:02;4.35;;;2.92;;
8036;SDS011;4061;51.360;7.340;2023-06-24T11:02:30;3.17;;;2.88;;
8036;SDS011;4061;51.360;7.340;2023-06-24T11:04:57;5.03;;;3.17;;
8036;SDS011;4061;51.360;7.340;2023-06-24T11:07:25;3.20;;;2.90;;
8036;SDS011;4061;51.360;7.340;2023-06-24T11:09:54;3.70;;;2.80;;
8036;SDS011;4061;51.360;7.340;2023-06-24T11:12:23;4.60;;;2.53;;
8036;SDS011;4061;51.360;7.340;2023-06-24T11:14:50;5.55;;;2.83;;
8036;SDS011;4061;51.360;7.340;2023-06-24T11:17:16;5.78;;;2.75;;
8036;SDS011;4061;51.360;7.340;2023-06-24T11:19:43;2.67;;;2.47;;
8036;SDS011;4061;51.360;7.340;2023-06-24T11:22:11;4.55;;;2.90;;
8036;SDS011;4061;51.360;7.340;2023-06-24T11:24:38;5.32;;;2.38;;
8036;SDS011;4061;51.360;7.340;2023-06-24T11:27:07;5.53;;;2.40;;
8036;SDS011;4061;51.360;7.340;2023-06-24T11:29:35;4.30;;;3.28;;
8036;SDS011;4061;51.360;7.340;2023-06-24T11:32:02;8.23;;;2.65;;
8036;SDS011;4061;51.360;7.340;2023-06-24T11:34:29;5.50;;;3.10;;
8036;SDS011;4061;51.360;7.340;2023-06-24T11:36:56;8.73;;;3.00;;
8036;SDS011;4061;51.360;7.340;2023-06-24T11:39:24;6.65;;;3.17;;
8036;SDS011;4061;51.360;7.340;2023-06-24T11:41:52;3.10;;;2.30;;
8036;SDS011;4061;51.360;7.340;2023-06-24T11:44:21;4.38;;;2.50;;
8036;SDS011;4061;51.360;7.340;2023-06-24T11:46:48;2.95;;;2.45;;
8036;SDS011;4061;51.360;7.340;2023-06-24T11:49:15;5.18;;;2.03;;
8036;SDS011;4061;51.360;7.340;2023-06-24T11:51:46;2.60;;;2.00;;
8036;SDS011;4061;51.360;7.340;2023-06-24T11:54:14;2.40;;;2.20;;
8036;SDS011;4061;51.360;7.340;2023-06-24T11:56:42;2.30;;;1.83;;
8036;SDS011;4061;51.360;7.340;2023-06-24T11:59:15;3.47;;;2.28;;
8036;SDS011;4061;51.360;7.340;2023-06-24T12:01:44;3.28;;;2.47;;
8036;SDS011;4061;51.360;7.340;2023-06-24T12:04:11;3.35;;;2.13;;
8036;SDS011;4061;51.360;7.340;2023-06-24T12:06:39;8.80;;;2.97;;
8036;SDS011;4061;51.360;7.340;2023-06-24T12:09:06;3.28;;;2.60;;
8036;SDS011;4061;51.360;7.340;2023-06-24T12:11:34;3.47;;;2.70;;
8036;SDS011;4061;51.360;7.340;2023-06-24T12:14:01;2.60;;;2.40;;
8036;SDS011;4061;51.360;7.340;2023-06-24T12:16:28;2.30;;;2.03;;
8036;SDS011;4061;51.360;7.340;2023-06-24T12:18:56;2.28;;;2.08;;
8036;SDS011;4061;51.360;7.340;2023-06-24T12:21:23;2.80;;;2.42;;
8036;SDS011;4061;51.360;7.340;2023-06-24T12:23:50;2.10;;;1.95;;
8036;SDS011;4061;51.360;7.340;2023-06-24T12:26:17;3.92;;;2.10;;
8036;SDS011;4061;51.360;7.340;2023-06-24T12:28:44;2.80;;;2.13;;
8036;SDS011;4061;51.360;7.340;2023-06-24T12:31:11;3.20;;;1.83;;
8036;SDS011;4061;51.360;7.340;2023-06-24T12:33:38;2.05;;;1.80;;
8036;SDS011;4061;51.360;7.340;2023-06-24T12:36:07;2.05;;;1.60;;
8036;SDS011;4061;51.360;7.340;2023-06-24T12:38:34;2.63;;;2.42;;
8036;SDS011;4061;51.360;7.340;2023-06-24T12:41:01;5.05;;;2.00;;
8036;SDS011;4061;51.360;7.340;2023-06-24T12:43:28;6.10;;;2.28;;
8036;SDS011;4061;51.360;7.340;2023-06-24T12:45:55;1.83;;;1.67;;
8036;SDS011;4061;51.360;7.340;2023-06-24T12:48:22;5.45;;;2.00;;
8036;SDS011;4061;51.360;7.340;2023-06-24T12:50:49;2.03;;;1.83;;
8036;SDS011;4061;51.360;7.340;2023-06-24T12:53:19;4.75;;;2.08;;
8036;SDS011;4061;51.360;7.340;2023-06-24T12:55:46;1.75;;;1.65;;
8036;SDS011;4061;51.360;7.340;2023-06-24T12:58:13;1.77;;;1.52;;
8036;SDS011;4061;51.360;7.340;2023-06-24T13:00:40;2.15;;;2.00;;
8036;SDS011;4061;51.360;7.340;2023-06-24T13:03:07;4.18;;;2.03;;
8036;SDS011;4061;51.360;7.340;2023-06-24T13:05:34;2.75;;;1.75;;
8036;SDS011;4061;51.360;7.340;2023-06-24T13:08:01;6.65;;;2.00;;
8036;SDS011;4061;51.360;7.340;2023-06-24T13:10:30;2.13;;;1.88;;
8036;SDS011;4061;51.360;7.340;2023-06-24T13:12:57;1.85;;;1.75;;
8036;SDS011;4061;51.360;7.340;2023-06-24T13:15:24;2.45;;;1.80;;
8036;SDS011;4061;51.360;7.340;2023-06-24T13:17:52;1.88;;;1.77;;
8036;SDS011;4061;51.360;7.340;2023-06-24T13:20:19;1.83;;;1.73;;
8036;SDS011;4061;51.360;7.340;2023-06-24T13:22:45;1.90;;;1.80;;
8036;SDS011;4061;51.360;7.340;2023-06-24T13:25:12;3.17;;;2.00;;
8036;SDS011;4061;51.360;7.340;2023-06-24T13:27:40;2.42;;;2.22;;
8036;SDS011;4061;51.360;7.340;2023-06-24T13:30:07;2.00;;;1.90;;
8036;SDS011;4061;51.360;7.340;2023-06-24T13:32:35;3.40;;;2.25;;
8036;SDS011;4061;51.360;7.340;2023-06-24T13:35:02;4.13;;;2.00;;
8036;SDS011;4061;51.360;7.340;2023-06-24T13:37:30;2.53;;;1.90;;
8036;SDS011;4061;51.360;7.340;2023-06-24T13:39:56;10.98;;;2.40;;
8036;SDS011;4061;51.360;7.340;2023-06-24T13:42:24;5.38;;;2.00;;
8036;SDS011;4061;51.360;7.340;2023-06-24T13:44:52;5.88;;;2.42;;
8036;SDS011;4061;51.360;7.340;2023-06-24T13:47:19;5.55;;;2.35;;
8036;SDS011;4061;51.360;7.340;2023-06-24T13:49:48;2.47;;;2.00;;
8036;SDS011;4061;51.360;7.340;2023-06-24T13:52:14;3.85;;;2.35;;
8036;SDS011;4061;51.360;7.340;2023-06-24T13:54:41;1.65;;;1.55;;
8036;SDS011;4061;51.360;7.340;2023-06-24T13:57:08;4.50;;;1.88;;
8036;SDS011;4061;51.360;7.340;2023-06-24T13:59:34;5.07;;;1.98;;
8036;SDS011;4061;51.360;7.340;2023-06-24T14:02:03;2.20;;;2.00;;
8036;SDS011;4061;51.360;7.340;2023-06-24T14:04:30;3.83;;;2.17;;
8036;SDS011;4061;51.360;7.340;2023-06-24T14:06:56;2.75;;;2.00;;
8036;SDS011;4061;51.360;7.340;2023-06-24T14:09:23;2.92;;;2.00;;
8036;SDS011;4061;51.360;7.340;2023-06-24T14:11:50;2.40;;;2.20;;
8036;SDS011;4061;51.360;7.340;2023-06-24T14:14:17;3.42;;;2.00;;
8036;SDS011;4061;51.360;7.340;2023-06-24T14:16:43;2.55;;;2.20;;
8036;SDS011;4061;51.360;7.340;2023-06-24T14:19:12;3.17;;;2.20;;
8036;SDS011;4061;51.360;7.340;2023-06-24T14:21:38;2.65;;;1.60;;
8036;SDS011;4061;51.360;7.340;2023-06-24T14:24:05;1.83;;;1.70;;
8036;SDS011;4061;51.360;7.340;2023-06-24T14:26:35;2.80;;;2.10;;
8036;SDS011;4061;51.360;7.340;2023-06-24T14:29:02;3.80;;;1.90;;
8036;SDS011;4061;51.360;7.340;2023-06-24T14:31:29;1.63;;;1.52;;
8036;SDS011;4061;51.360;7.340;2023-06-24T14:33:56;3.92;;;1.60;;
8036;SDS011;4061;51.360;7.340;2023-06-24T14:36:24;3.38;;;1.73;;
8036;SDS011;4061;51.360;7.340;2023-06-24T14:38:51;2.35;;;1.83;;
8036;SDS011;4061;51.360;7.340;2023-06-24T14:41:18;2.08;;;1.83;;
8036;SDS011;4061;51.360;7.340;2023-06-24T14:43:45;2.35;;;2.05;;
8036;SDS011;4061;51.360;7.340;2023-06-24T14:46:13;1.40;;;1.30;;
8036;SDS011;4061;51.360;7.340;2023-06-24T14:48:39;1.63;;;1.52;;
8036;SDS011;4061;51.360;7.340;2023-06-24T14:51:06;1.75;;;1.65;;
8036;SDS011;4061;51.360;7.340;2023-06-24T14:53:34;3.38;;;2.10;;
8036;SDS011;4061;51.360;7.340;2023-06-24T14:56:01;2.88;;;1.67;;
8036;SDS011;4061;51.360;7.340;2023-06-24T14:58:27;3.80;;;1.60;;
8036;SDS011;4061;51.360;7.340;2023-06-24T15:00:54;4.18;;;2.28;;
8036;SDS011;4061;51.360;7.340;2023-06-24T15:03:21;1.73;;;1.63;;
8036;SDS011;4061;51.360;7.340;2023-06-24T15:05:48;3.53;;;1.90;;
8036;SDS011;4061;51.360;7.340;2023-06-24T15:08:15;2.25;;;2.05;;
8036;SDS011;4061;51.360;7.340;2023-06-24T15:10:43;4.93;;;1.80;;
8036;SDS011;4061;51.360;7.340;2023-06-24T15:13:09;1.80;;;1.70;;
8036;SDS011;4061;51.360;7.340;2023-06-24T15:15:36;5.68;;;1.48;;
8036;SDS011;4061;51.360;7.340;2023-06-24T15:18:03;1.58;;;1.48;;
8036;SDS011;4061;51.360;7.340;2023-06-24T15:20:30;4.78;;;1.98;;
8036;SDS011;4061;51.360;7.340;2023-06-24T15:22:57;7.38;;;2.50;;
8036;SDS011;4061;51.360;7.340;2023-06-24T15:25:24;5.88;;;2.25;;